sensor_id;sensor_type;location;lat;lon;timestamp;P1;durP1;ratioP1;P2;durP2;ratioP2
16800;SDS011;8518;53.236;10.384;2022-11-18T00:01:46;17.70;;;12.87;;
16800;SDS011;8518;53.236;10.384;2022-11-18T00:04:11;16.77;;;13.20;;
16800;SDS011;8518;53.236;10.384;2022-11-18T00:06:37;15.87;;;13.03;;
16800;SDS011;8518;53.236;10.384;2022-11-18T00:09:03;18.33;;;13.27;;
16800;SDS011;8518;53.236;10.384;2022-11-18T00:11:29;17.53;;;13.17;;
16800;SDS011;8518;53.236;10.384;2022-11-18T00:14:21;15.93;;;12.63;;
16800;SDS011;8518;53.236;10.384;2022-11-18T00:17:01;16.87;;;13.23;;
16800;SDS011;8518;53.236;10.384;2022-11-18T00:19:32;16.07;;;12.47;;
16800;SDS011;8518;53.236;10.384;2022-11-18T00:22:02;16.67;;;12.57;;
16800;SDS011;8518;53.236;10.384;2022-11-18T00:24:29;16.90;;;13.20;;
16800;SDS011;8518;53.236;10.384;2022-11-18T00:26:55;17.10;;;13.53;;
16800;SDS011;8518;53.236;10.384;2022-11-18T00:29:21;19.10;;;14.07;;
16800;SDS011;8518;53.236;10.384;2022-11-18T00:31:48;18.40;;;14.00;;
16800;SDS011;8518;53.236;10.384;2022-11-18T00:34:14;18.77;;;13.97;;
16800;SDS011;8518;53.236;10.384;2022-11-18T00:36:41;18.87;;;14.43;;
16800;SDS011;8518;53.236;10.384;2022-11-18T00:39:11;17.37;;;13.53;;
16800;SDS011;8518;53.236;10.384;2022-11-18T00:41:38;19.03;;;14.43;;
16800;SDS011;8518;53.236;10.384;2022-11-18T00:44:23;19.30;;;14.63;;
16800;SDS011;8518;53.236;10.384;2022-11-18T00:46:48;18.77;;;14.30;;
16800;SDS011;8518;53.236;10.384;2022-11-18T00:49:14;19.70;;;15.23;;
16800;SDS011;8518;53.236;10.384;2022-11-18T00:51:40;20.03;;;15.67;;
16800;SDS011;8518;53.236;10.384;2022-11-18T00:54:05;20.87;;;15.63;;
16800;SDS011;8518;53.236;10.384;2022-11-18T00:56:31;22.97;;;15.43;;
16800;SDS011;8518;53.236;10.384;2022-11-18T00:58:57;19.03;;;14.67;;
16800;SDS011;8518;53.236;10.384;2022-11-18T01:01:22;19.70;;;15.13;;
16800;SDS011;8518;53.236;10.384;2022-11-18T01:03:48;20.97;;;15.17;;
16800;SDS011;8518;53.236;10.384;2022-11-18T01:06:14;19.10;;;14.10;;
16800;SDS011;8518;53.236;10.384;2022-11-18T01:08:39;20.40;;;15.30;;
16800;SDS011;8518;53.236;10.384;2022-11-18T01:11:05;18.60;;;14.77;;
16800;SDS011;8518;53.236;10.384;2022-11-18T01:13:50;21.03;;;15.97;;
16800;SDS011;8518;53.236;10.384;2022-11-18T01:16:22;18.30;;;15.00;;
16800;SDS011;8518;53.236;10.384;2022-11-18T01:18:50;16.07;;;13.13;;
16800;SDS011;8518;53.236;10.384;2022-11-18T01:21:16;17.17;;;12.83;;
16800;SDS011;8518;53.236;10.384;2022-11-18T01:23:42;17.20;;;13.53;;
16800;SDS011;8518;53.236;10.384;2022-11-18T01:26:09;15.97;;;13.43;;
16800;SDS011;8518;53.236;10.384;2022-11-18T01:28:36;16.80;;;13.00;;
16800;SDS011;8518;53.236;10.384;2022-11-18T01:31:03;17.03;;;13.07;;
16800;SDS011;8518;53.236;10.384;2022-11-18T01:33:30;16.67;;;12.80;;
16800;SDS011;8518;53.236;10.384;2022-11-18T01:35:56;15.60;;;12.17;;
16800;SDS011;8518;53.236;10.384;2022-11-18T01:38:22;15.50;;;12.13;;
16800;SDS011;8518;53.236;10.384;2022-11-18T01:40:47;16.33;;;12.90;;
16800;SDS011;8518;53.236;10.384;2022-11-18T01:43:14;15.83;;;12.40;;
16800;SDS011;8518;53.236;10.384;2022-11-18T01:45:43;14.63;;;11.93;;
16800;SDS011;8518;53.236;10.384;2022-11-18T01:48:20;16.73;;;12.80;;
16800;SDS011;8518;53.236;10.384;2022-11-18T01:50:54;15.17;;;11.80;;
16800;SDS011;8518;53.236;10.384;2022-11-18T01:53:31;16.83;;;13.20;;
16800;SDS011;8518;53.236;10.384;2022-11-18T01:56:06;17.27;;;12.40;;
16800;SDS011;8518;53.236;10.384;2022-11-18T01:58:37;15.87;;;11.63;;
16800;SDS011;8518;53.236;10.384;2022-11-18T02:01:05;17.67;;;13.40;;
16800;SDS011;8518;53.236;10.384;2022-11-18T02:03:32;16.03;;;12.37;;
16800;SDS011;8518;53.236;10.384;2022-11-18T02:05:58;17.23;;;12.73;;
16800;SDS011;8518;53.236;10.384;2022-11-18T02:08:26;15.60;;;11.57;;
16800;SDS011;8518;53.236;10.384;2022-11-18T02:10:54;15.23;;;12.60;;
16800;SDS011;8518;53.236;10.384;2022-11-18T02:13:20;13.93;;;11.60;;
16800;SDS011;8518;53.236;10.384;2022-11-18T02:31:50;17.33;;;12.20;;
16800;SDS011;8518;53.236;10.384;2022-11-18T02:34:30;16.57;;;12.50;;
16800;SDS011;8518;53.236;10.384;2022-11-18T02:36:58;16.37;;;11.97;;
16800;SDS011;8518;53.236;10.384;2022-11-18T02:39:32;14.87;;;12.17;;
16800;SDS011;8518;53.236;10.384;2022-11-18T02:42:03;16.43;;;12.63;;
16800;SDS011;8518;53.236;10.384;2022-11-18T02:44:31;16.60;;;12.33;;
16800;SDS011;8518;53.236;10.384;2022-11-18T02:47:01;16.57;;;12.43;;
16800;SDS011;8518;53.236;10.384;2022-11-18T02:49:31;16.60;;;12.83;;
16800;SDS011;8518;53.236;10.384;2022-11-18T02:52:01;17.23;;;12.93;;
16800;SDS011;8518;53.236;10.384;2022-11-18T02:54:29;17.37;;;13.37;;
16800;SDS011;8518;53.236;10.384;2022-11-18T02:56:58;18.33;;;13.90;;
16800;SDS011;8518;53.236;10.384;2022-11-18T02:59:26;17.70;;;13.80;;
16800;SDS011;8518;53.236;10.384;2022-11-18T03:01:52;17.27;;;13.13;;
16800;SDS011;8518;53.236;10.384;2022-11-18T03:04:18;17.27;;;13.33;;
16800;SDS011;8518;53.236;10.384;2022-11-18T03:06:48;19.13;;;13.90;;
16800;SDS011;8518;53.236;10.384;2022-11-18T03:09:32;17.57;;;13.53;;
16800;SDS011;8518;53.236;10.384;2022-11-18T03:12:04;18.40;;;13.50;;
16800;SDS011;8518;53.236;10.384;2022-11-18T03:20:24;21.23;;;15.53;;
16800;SDS011;8518;53.236;10.384;2022-11-18T03:28:42;20.30;;;15.47;;
16800;SDS011;8518;53.236;10.384;2022-11-18T03:31:15;18.37;;;13.40;;
16800;SDS011;8518;53.236;10.384;2022-11-18T03:33:48;20.23;;;15.00;;
16800;SDS011;8518;53.236;10.384;2022-11-18T03:36:21;18.30;;;14.33;;
16800;SDS011;8518;53.236;10.384;2022-11-18T03:38:50;17.80;;;13.90;;
16800;SDS011;8518;53.236;10.384;2022-11-18T03:41:21;19.63;;;14.40;;
16800;SDS011;8518;53.236;10.384;2022-11-18T03:43:52;18.83;;;14.67;;
16800;SDS011;8518;53.236;10.384;2022-11-18T03:49:57;20.20;;;15.43;;
16800;SDS011;8518;53.236;10.384;2022-11-18T03:52:30;20.90;;;15.03;;
16800;SDS011;8518;53.236;10.384;2022-11-18T03:55:00;20.67;;;14.73;;
16800;SDS011;8518;53.236;10.384;2022-11-18T03:57:33;22.83;;;16.33;;
16800;SDS011;8518;53.236;10.384;2022-11-18T04:00:19;20.47;;;15.67;;
16800;SDS011;8518;53.236;10.384;2022-11-18T04:02:46;20.13;;;15.63;;
16800;SDS011;8518;53.236;10.384;2022-11-18T04:05:13;19.90;;;15.63;;
16800;SDS011;8518;53.236;10.384;2022-11-18T04:07:56;21.73;;;16.43;;
16800;SDS011;8518;53.236;10.384;2022-11-18T04:10:32;21.13;;;15.00;;
16800;SDS011;8518;53.236;10.384;2022-11-18T04:13:29;22.77;;;16.10;;
16800;SDS011;8518;53.236;10.384;2022-11-18T04:15:57;20.73;;;15.70;;
16800;SDS011;8518;53.236;10.384;2022-11-18T04:18:23;21.37;;;16.43;;
16800;SDS011;8518;53.236;10.384;2022-11-18T04:20:48;20.73;;;16.17;;
16800;SDS011;8518;53.236;10.384;2022-11-18T04:23:14;22.83;;;17.17;;
16800;SDS011;8518;53.236;10.384;2022-11-18T04:25:40;20.83;;;16.83;;
16800;SDS011;8518;53.236;10.384;2022-11-18T04:28:05;22.50;;;17.03;;
16800;SDS011;8518;53.236;10.384;2022-11-18T04:30:31;23.47;;;17.73;;
16800;SDS011;8518;53.236;10.384;2022-11-18T04:32:58;22.37;;;16.70;;
16800;SDS011;8518;53.236;10.384;2022-11-18T04:35:24;22.47;;;17.63;;
16800;SDS011;8518;53.236;10.384;2022-11-18T04:37:50;22.37;;;17.00;;
16800;SDS011;8518;53.236;10.384;2022-11-18T04:40:15;22.47;;;16.90;;
16800;SDS011;8518;53.236;10.384;2022-11-18T04:42:41;20.43;;;16.17;;
16800;SDS011;8518;53.236;10.384;2022-11-18T04:45:07;21.03;;;16.47;;
16800;SDS011;8518;53.236;10.384;2022-11-18T04:47:34;21.17;;;16.90;;
16800;SDS011;8518;53.236;10.384;2022-11-18T04:49:59;23.43;;;17.27;;
16800;SDS011;8518;53.236;10.384;2022-11-18T04:52:25;22.63;;;17.53;;
16800;SDS011;8518;53.236;10.384;2022-11-18T04:54:51;21.80;;;17.40;;
16800;SDS011;8518;53.236;10.384;2022-11-18T04:57:16;20.90;;;16.70;;
16800;SDS011;8518;53.236;10.384;2022-11-18T04:59:42;22.10;;;16.83;;
16800;SDS011;8518;53.236;10.384;2022-11-18T05:02:08;21.47;;;17.20;;
16800;SDS011;8518;53.236;10.384;2022-11-18T05:04:33;21.23;;;16.40;;
16800;SDS011;8518;53.236;10.384;2022-11-18T05:06:59;22.17;;;17.53;;
16800;SDS011;8518;53.236;10.384;2022-11-18T05:09:26;21.60;;;16.40;;
16800;SDS011;8518;53.236;10.384;2022-11-18T05:11:52;22.73;;;17.77;;
16800;SDS011;8518;53.236;10.384;2022-11-18T05:14:37;22.20;;;17.77;;
16800;SDS011;8518;53.236;10.384;2022-11-18T05:17:04;21.43;;;16.97;;
16800;SDS011;8518;53.236;10.384;2022-11-18T05:19:31;21.17;;;15.80;;
16800;SDS011;8518;53.236;10.384;2022-11-18T05:21:57;21.13;;;16.87;;
16800;SDS011;8518;53.236;10.384;2022-11-18T05:24:23;21.80;;;16.97;;
16800;SDS011;8518;53.236;10.384;2022-11-18T05:26:50;21.43;;;16.80;;
16800;SDS011;8518;53.236;10.384;2022-11-18T05:29:16;22.27;;;17.57;;
16800;SDS011;8518;53.236;10.384;2022-11-18T05:31:43;20.70;;;16.43;;
16800;SDS011;8518;53.236;10.384;2022-11-18T05:34:10;24.00;;;17.87;;
16800;SDS011;8518;53.236;10.384;2022-11-18T05:36:36;22.50;;;17.27;;
16800;SDS011;8518;53.236;10.384;2022-11-18T05:39:02;23.77;;;18.40;;
16800;SDS011;8518;53.236;10.384;2022-11-18T05:41:27;22.40;;;17.47;;
16800;SDS011;8518;53.236;10.384;2022-11-18T05:44:11;22.90;;;17.90;;
16800;SDS011;8518;53.236;10.384;2022-11-18T05:46:37;21.67;;;16.43;;
16800;SDS011;8518;53.236;10.384;2022-11-18T05:49:03;22.37;;;16.97;;
16800;SDS011;8518;53.236;10.384;2022-11-18T05:51:29;24.93;;;18.43;;
16800;SDS011;8518;53.236;10.384;2022-11-18T05:53:55;20.90;;;17.17;;
16800;SDS011;8518;53.236;10.384;2022-11-18T05:56:26;22.30;;;17.07;;
16800;SDS011;8518;53.236;10.384;2022-11-18T05:58:53;23.33;;;17.43;;
16800;SDS011;8518;53.236;10.384;2022-11-18T06:01:20;22.90;;;17.73;;
16800;SDS011;8518;53.236;10.384;2022-11-18T06:03:51;21.47;;;17.57;;
16800;SDS011;8518;53.236;10.384;2022-11-18T06:06:17;22.80;;;17.90;;
16800;SDS011;8518;53.236;10.384;2022-11-18T06:08:50;24.10;;;18.07;;
16800;SDS011;8518;53.236;10.384;2022-11-18T06:11:19;21.57;;;16.97;;
16800;SDS011;8518;53.236;10.384;2022-11-18T06:14:07;21.50;;;17.53;;
16800;SDS011;8518;53.236;10.384;2022-11-18T06:16:43;20.67;;;16.97;;
16800;SDS011;8518;53.236;10.384;2022-11-18T06:19:13;22.93;;;18.00;;
16800;SDS011;8518;53.236;10.384;2022-11-18T06:21:40;21.03;;;16.80;;
16800;SDS011;8518;53.236;10.384;2022-11-18T06:24:06;22.23;;;17.63;;
16800;SDS011;8518;53.236;10.384;2022-11-18T06:26:34;22.33;;;18.30;;
16800;SDS011;8518;53.236;10.384;2022-11-18T06:29:00;21.87;;;17.60;;
16800;SDS011;8518;53.236;10.384;2022-11-18T06:31:29;22.10;;;17.47;;
16800;SDS011;8518;53.236;10.384;2022-11-18T06:33:55;21.23;;;17.00;;
16800;SDS011;8518;53.236;10.384;2022-11-18T06:36:21;22.73;;;17.63;;
16800;SDS011;8518;53.236;10.384;2022-11-18T06:38:46;22.93;;;17.67;;
16800;SDS011;8518;53.236;10.384;2022-11-18T06:41:12;22.97;;;17.83;;
16800;SDS011;8518;53.236;10.384;2022-11-18T06:43:37;22.07;;;17.53;;
16800;SDS011;8518;53.236;10.384;2022-11-18T06:46:05;23.00;;;18.20;;
16800;SDS011;8518;53.236;10.384;2022-11-18T06:48:51;23.00;;;17.53;;
16800;SDS011;8518;53.236;10.384;2022-11-18T06:51:17;22.97;;;17.67;;
16800;SDS011;8518;53.236;10.384;2022-11-18T06:53:43;22.73;;;18.20;;
16800;SDS011;8518;53.236;10.384;2022-11-18T06:56:09;21.57;;;17.43;;
16800;SDS011;8518;53.236;10.384;2022-11-18T06:58:37;22.20;;;18.07;;
16800;SDS011;8518;53.236;10.384;2022-11-18T07:01:10;22.53;;;17.80;;
16800;SDS011;8518;53.236;10.384;2022-11-18T07:03:40;22.23;;;17.57;;
16800;SDS011;8518;53.236;10.384;2022-11-18T07:06:07;22.87;;;18.23;;
16800;SDS011;8518;53.236;10.384;2022-11-18T07:08:36;23.07;;;18.03;;
16800;SDS011;8518;53.236;10.384;2022-11-18T07:11:04;23.37;;;18.67;;
16800;SDS011;8518;53.236;10.384;2022-11-18T07:13:31;24.30;;;18.60;;
16800;SDS011;8518;53.236;10.384;2022-11-18T07:16:01;25.13;;;19.13;;
16800;SDS011;8518;53.236;10.384;2022-11-18T07:18:32;25.70;;;19.27;;
16800;SDS011;8518;53.236;10.384;2022-11-18T07:21:00;23.63;;;18.57;;
16800;SDS011;8518;53.236;10.384;2022-11-18T07:23:28;23.23;;;18.50;;
16800;SDS011;8518;53.236;10.384;2022-11-18T07:25:55;25.10;;;19.63;;
16800;SDS011;8518;53.236;10.384;2022-11-18T07:28:20;28.47;;;20.17;;
16800;SDS011;8518;53.236;10.384;2022-11-18T07:30:46;23.40;;;19.23;;
16800;SDS011;8518;53.236;10.384;2022-11-18T07:33:12;26.77;;;20.27;;
16800;SDS011;8518;53.236;10.384;2022-11-18T07:35:37;27.00;;;20.13;;
16800;SDS011;8518;53.236;10.384;2022-11-18T07:38:03;28.17;;;19.17;;
16800;SDS011;8518;53.236;10.384;2022-11-18T07:40:29;25.83;;;19.70;;
16800;SDS011;8518;53.236;10.384;2022-11-18T07:42:54;27.90;;;20.90;;
16800;SDS011;8518;53.236;10.384;2022-11-18T07:45:20;28.37;;;21.60;;
16800;SDS011;8518;53.236;10.384;2022-11-18T07:47:45;28.33;;;20.87;;
16800;SDS011;8518;53.236;10.384;2022-11-18T07:50:11;25.83;;;19.50;;
16800;SDS011;8518;53.236;10.384;2022-11-18T07:52:37;29.57;;;21.03;;
16800;SDS011;8518;53.236;10.384;2022-11-18T07:55:02;25.40;;;19.70;;
16800;SDS011;8518;53.236;10.384;2022-11-18T07:57:28;31.70;;;22.83;;
16800;SDS011;8518;53.236;10.384;2022-11-18T07:59:54;26.07;;;20.83;;
16800;SDS011;8518;53.236;10.384;2022-11-18T08:02:20;28.00;;;20.17;;
16800;SDS011;8518;53.236;10.384;2022-11-18T08:04:45;27.57;;;20.50;;
16800;SDS011;8518;53.236;10.384;2022-11-18T08:07:11;25.57;;;19.93;;
16800;SDS011;8518;53.236;10.384;2022-11-18T08:09:36;26.40;;;19.67;;
16800;SDS011;8518;53.236;10.384;2022-11-18T08:12:02;27.37;;;20.20;;
16800;SDS011;8518;53.236;10.384;2022-11-18T08:14:28;27.40;;;19.37;;
16800;SDS011;8518;53.236;10.384;2022-11-18T08:16:54;28.63;;;19.90;;
16800;SDS011;8518;53.236;10.384;2022-11-18T08:19:19;25.50;;;18.77;;
16800;SDS011;8518;53.236;10.384;2022-11-18T08:21:45;25.40;;;19.43;;
16800;SDS011;8518;53.236;10.384;2022-11-18T08:24:11;24.73;;;19.23;;
16800;SDS011;8518;53.236;10.384;2022-11-18T08:26:37;23.87;;;19.20;;
16800;SDS011;8518;53.236;10.384;2022-11-18T08:29:02;24.67;;;18.83;;
16800;SDS011;8518;53.236;10.384;2022-11-18T08:31:28;25.03;;;19.53;;
16800;SDS011;8518;53.236;10.384;2022-11-18T08:36:22;25.33;;;19.90;;
16800;SDS011;8518;53.236;10.384;2022-11-18T08:38:49;24.40;;;19.10;;
16800;SDS011;8518;53.236;10.384;2022-11-18T08:41:17;24.20;;;18.80;;
16800;SDS011;8518;53.236;10.384;2022-11-18T08:43:45;23.67;;;18.13;;
16800;SDS011;8518;53.236;10.384;2022-11-18T08:46:10;22.83;;;17.47;;
16800;SDS011;8518;53.236;10.384;2022-11-18T08:48:36;20.00;;;17.30;;
16800;SDS011;8518;53.236;10.384;2022-11-18T08:51:03;22.20;;;17.17;;
16800;SDS011;8518;53.236;10.384;2022-11-18T08:53:29;24.50;;;17.67;;
16800;SDS011;8518;53.236;10.384;2022-11-18T08:55:57;21.33;;;16.50;;
16800;SDS011;8518;53.236;10.384;2022-11-18T08:58:24;22.07;;;16.37;;
16800;SDS011;8518;53.236;10.384;2022-11-18T09:00:50;24.00;;;18.13;;
16800;SDS011;8518;53.236;10.384;2022-11-18T09:03:16;23.50;;;17.90;;
16800;SDS011;8518;53.236;10.384;2022-11-18T09:05:42;20.80;;;16.97;;
16800;SDS011;8518;53.236;10.384;2022-11-18T09:08:08;21.70;;;17.37;;
16800;SDS011;8518;53.236;10.384;2022-11-18T09:10:33;22.53;;;16.70;;
16800;SDS011;8518;53.236;10.384;2022-11-18T09:13:01;21.07;;;16.63;;
16800;SDS011;8518;53.236;10.384;2022-11-18T09:15:27;21.90;;;17.20;;
16800;SDS011;8518;53.236;10.384;2022-11-18T09:17:55;24.27;;;18.67;;
16800;SDS011;8518;53.236;10.384;2022-11-18T09:20:21;20.50;;;16.23;;
16800;SDS011;8518;53.236;10.384;2022-11-18T09:22:47;21.10;;;16.87;;
16800;SDS011;8518;53.236;10.384;2022-11-18T09:25:13;23.23;;;17.57;;
16800;SDS011;8518;53.236;10.384;2022-11-18T09:27:40;21.00;;;16.83;;
16800;SDS011;8518;53.236;10.384;2022-11-18T09:30:06;21.10;;;16.57;;
16800;SDS011;8518;53.236;10.384;2022-11-18T09:32:32;21.77;;;16.93;;
16800;SDS011;8518;53.236;10.384;2022-11-18T09:34:58;21.27;;;16.33;;
16800;SDS011;8518;53.236;10.384;2022-11-18T09:37:24;19.13;;;15.30;;
16800;SDS011;8518;53.236;10.384;2022-11-18T09:39:50;21.00;;;16.00;;
16800;SDS011;8518;53.236;10.384;2022-11-18T09:42:19;20.50;;;16.73;;
16800;SDS011;8518;53.236;10.384;2022-11-18T09:47:35;20.90;;;15.97;;
16800;SDS011;8518;53.236;10.384;2022-11-18T09:55:33;19.90;;;16.43;;
16800;SDS011;8518;53.236;10.384;2022-11-18T09:58:02;20.87;;;15.87;;
16800;SDS011;8518;53.236;10.384;2022-11-18T10:00:29;19.07;;;15.37;;
16800;SDS011;8518;53.236;10.384;2022-11-18T10:05:30;20.63;;;16.30;;
16800;SDS011;8518;53.236;10.384;2022-11-18T10:08:14;24.97;;;16.87;;
16800;SDS011;8518;53.236;10.384;2022-11-18T10:15:59;22.33;;;17.17;;
16800;SDS011;8518;53.236;10.384;2022-11-18T10:18:51;22.00;;;16.70;;
16800;SDS011;8518;53.236;10.384;2022-11-18T10:21:40;22.33;;;16.80;;
16800;SDS011;8518;53.236;10.384;2022-11-18T10:24:20;19.83;;;16.07;;
16800;SDS011;8518;53.236;10.384;2022-11-18T10:26:53;19.07;;;14.83;;
16800;SDS011;8518;53.236;10.384;2022-11-18T10:29:20;18.53;;;15.07;;
16800;SDS011;8518;53.236;10.384;2022-11-18T10:34:51;21.20;;;15.47;;
16800;SDS011;8518;53.236;10.384;2022-11-18T10:39:51;18.97;;;15.50;;
16800;SDS011;8518;53.236;10.384;2022-11-18T10:47:58;15.83;;;13.83;;
16800;SDS011;8518;53.236;10.384;2022-11-18T10:50:49;16.07;;;13.20;;
16800;SDS011;8518;53.236;10.384;2022-11-18T10:53:29;18.67;;;14.77;;
16800;SDS011;8518;53.236;10.384;2022-11-18T10:56:02;17.50;;;14.37;;
16800;SDS011;8518;53.236;10.384;2022-11-18T10:58:36;15.43;;;13.40;;
16800;SDS011;8518;53.236;10.384;2022-11-18T11:01:07;16.63;;;13.63;;
16800;SDS011;8518;53.236;10.384;2022-11-18T11:03:39;16.80;;;13.43;;
16800;SDS011;8518;53.236;10.384;2022-11-18T11:08:57;15.00;;;12.13;;
16800;SDS011;8518;53.236;10.384;2022-11-18T11:17:14;15.83;;;13.57;;
16800;SDS011;8518;53.236;10.384;2022-11-18T11:20:20;15.13;;;12.33;;
16800;SDS011;8518;53.236;10.384;2022-11-18T11:22:47;14.67;;;12.37;;
16800;SDS011;8518;53.236;10.384;2022-11-18T11:25:14;17.57;;;12.33;;
16800;SDS011;8518;53.236;10.384;2022-11-18T11:30:22;14.80;;;12.97;;
16800;SDS011;8518;53.236;10.384;2022-11-18T11:35:50;15.23;;;12.80;;
16800;SDS011;8518;53.236;10.384;2022-11-18T11:41:18;14.83;;;11.90;;
16800;SDS011;8518;53.236;10.384;2022-11-18T11:49:52;14.23;;;12.07;;
16800;SDS011;8518;53.236;10.384;2022-11-18T11:52:40;12.73;;;10.80;;
16800;SDS011;8518;53.236;10.384;2022-11-18T11:55:13;13.33;;;11.20;;
16800;SDS011;8518;53.236;10.384;2022-11-18T12:00:54;12.33;;;10.03;;
16800;SDS011;8518;53.236;10.384;2022-11-18T12:03:43;11.67;;;9.67;;
16800;SDS011;8518;53.236;10.384;2022-11-18T12:06:16;13.20;;;10.70;;
16800;SDS011;8518;53.236;10.384;2022-11-18T12:09:04;11.57;;;10.10;;
16800;SDS011;8518;53.236;10.384;2022-11-18T12:16:53;12.37;;;9.87;;
16800;SDS011;8518;53.236;10.384;2022-11-18T12:19:40;12.73;;;9.77;;
16800;SDS011;8518;53.236;10.384;2022-11-18T12:22:05;11.63;;;9.77;;
16800;SDS011;8518;53.236;10.384;2022-11-18T12:24:32;10.37;;;9.27;;
16800;SDS011;8518;53.236;10.384;2022-11-18T12:27:01;11.83;;;10.40;;
16800;SDS011;8518;53.236;10.384;2022-11-18T12:32:52;10.87;;;9.37;;
16800;SDS011;8518;53.236;10.384;2022-11-18T12:43:03;10.70;;;8.93;;
16800;SDS011;8518;53.236;10.384;2022-11-18T12:45:50;11.73;;;9.53;;
16800;SDS011;8518;53.236;10.384;2022-11-18T12:48:31;10.67;;;8.77;;
16800;SDS011;8518;53.236;10.384;2022-11-18T12:51:00;10.87;;;8.50;;
16800;SDS011;8518;53.236;10.384;2022-11-18T12:53:46;10.87;;;8.73;;
16800;SDS011;8518;53.236;10.384;2022-11-18T12:58:49;10.60;;;8.23;;
16800;SDS011;8518;53.236;10.384;2022-11-18T13:01:18;10.77;;;8.30;;
16800;SDS011;8518;53.236;10.384;2022-11-18T13:03:46;8.97;;;8.07;;
16800;SDS011;8518;53.236;10.384;2022-11-18T13:06:20;8.77;;;7.87;;
16800;SDS011;8518;53.236;10.384;2022-11-18T13:08:51;11.57;;;8.67;;
16800;SDS011;8518;53.236;10.384;2022-11-18T13:11:28;10.10;;;8.37;;
16800;SDS011;8518;53.236;10.384;2022-11-18T13:14:22;10.37;;;7.90;;
16800;SDS011;8518;53.236;10.384;2022-11-18T13:17:31;10.47;;;7.90;;
16800;SDS011;8518;53.236;10.384;2022-11-18T13:22:54;10.30;;;7.60;;
16800;SDS011;8518;53.236;10.384;2022-11-18T13:25:43;8.93;;;7.23;;
16800;SDS011;8518;53.236;10.384;2022-11-18T13:34:18;10.80;;;7.23;;
16800;SDS011;8518;53.236;10.384;2022-11-18T13:36:46;8.53;;;7.07;;
16800;SDS011;8518;53.236;10.384;2022-11-18T13:39:31;7.97;;;6.90;;
16800;SDS011;8518;53.236;10.384;2022-11-18T13:41:58;8.13;;;6.83;;
16800;SDS011;8518;53.236;10.384;2022-11-18T13:44:30;9.73;;;7.33;;
16800;SDS011;8518;53.236;10.384;2022-11-18T13:52:40;7.83;;;6.27;;
16800;SDS011;8518;53.236;10.384;2022-11-18T13:55:18;9.37;;;7.33;;
16800;SDS011;8518;53.236;10.384;2022-11-18T13:57:50;8.47;;;7.40;;
16800;SDS011;8518;53.236;10.384;2022-11-18T14:00:36;8.50;;;6.83;;
16800;SDS011;8518;53.236;10.384;2022-11-18T14:03:03;8.13;;;7.30;;
16800;SDS011;8518;53.236;10.384;2022-11-18T14:05:39;9.33;;;7.07;;
16800;SDS011;8518;53.236;10.384;2022-11-18T14:08:06;7.63;;;6.60;;
16800;SDS011;8518;53.236;10.384;2022-11-18T14:10:49;8.50;;;7.33;;
16800;SDS011;8518;53.236;10.384;2022-11-18T14:13:27;9.03;;;6.73;;
16800;SDS011;8518;53.236;10.384;2022-11-18T14:16:45;9.00;;;7.23;;
16800;SDS011;8518;53.236;10.384;2022-11-18T14:18:47;8.63;;;6.90;;
16800;SDS011;8518;53.236;10.384;2022-11-18T14:21:25;8.23;;;7.27;;
16800;SDS011;8518;53.236;10.384;2022-11-18T14:23:52;7.70;;;6.83;;
16800;SDS011;8518;53.236;10.384;2022-11-18T14:26:25;8.77;;;7.60;;
16800;SDS011;8518;53.236;10.384;2022-11-18T14:28:53;7.83;;;6.93;;
16800;SDS011;8518;53.236;10.384;2022-11-18T14:31:27;9.43;;;7.37;;
16800;SDS011;8518;53.236;10.384;2022-11-18T14:36:45;8.13;;;6.37;;
16800;SDS011;8518;53.236;10.384;2022-11-18T14:39:12;8.67;;;7.47;;
16800;SDS011;8518;53.236;10.384;2022-11-18T14:42:09;8.33;;;7.50;;
16800;SDS011;8518;53.236;10.384;2022-11-18T14:44:36;8.67;;;6.90;;
16800;SDS011;8518;53.236;10.384;2022-11-18T14:47:03;8.17;;;6.87;;
16800;SDS011;8518;53.236;10.384;2022-11-18T14:49:43;8.33;;;7.33;;
16800;SDS011;8518;53.236;10.384;2022-11-18T14:52:09;8.67;;;7.30;;
16800;SDS011;8518;53.236;10.384;2022-11-18T14:54:34;8.90;;;7.43;;
16800;SDS011;8518;53.236;10.384;2022-11-18T14:57:01;11.27;;;7.93;;
16800;SDS011;8518;53.236;10.384;2022-11-18T14:59:28;10.97;;;8.20;;
16800;SDS011;8518;53.236;10.384;2022-11-18T15:01:54;8.90;;;7.63;;
16800;SDS011;8518;53.236;10.384;2022-11-18T15:04:20;7.73;;;6.93;;
16800;SDS011;8518;53.236;10.384;2022-11-18T15:06:46;10.60;;;7.23;;
16800;SDS011;8518;53.236;10.384;2022-11-18T15:09:12;8.67;;;7.77;;
16800;SDS011;8518;53.236;10.384;2022-11-18T15:11:37;9.57;;;8.03;;
16800;SDS011;8518;53.236;10.384;2022-11-18T15:14:03;10.70;;;8.47;;
16800;SDS011;8518;53.236;10.384;2022-11-18T15:16:30;8.77;;;7.43;;
16800;SDS011;8518;53.236;10.384;2022-11-18T15:18:57;10.50;;;8.10;;
16800;SDS011;8518;53.236;10.384;2022-11-18T15:21:25;9.67;;;7.60;;
16800;SDS011;8518;53.236;10.384;2022-11-18T15:23:51;11.20;;;8.20;;
16800;SDS011;8518;53.236;10.384;2022-11-18T15:26:21;11.57;;;8.40;;
16800;SDS011;8518;53.236;10.384;2022-11-18T15:28:53;9.90;;;8.13;;
16800;SDS011;8518;53.236;10.384;2022-11-18T15:31:20;9.57;;;7.87;;
16800;SDS011;8518;53.236;10.384;2022-11-18T15:33:46;10.27;;;8.47;;
16800;SDS011;8518;53.236;10.384;2022-11-18T15:36:17;9.87;;;8.00;;
16800;SDS011;8518;53.236;10.384;2022-11-18T15:38:44;9.10;;;7.63;;
16800;SDS011;8518;53.236;10.384;2022-11-18T15:41:17;10.77;;;8.00;;
16800;SDS011;8518;53.236;10.384;2022-11-18T15:43:48;9.50;;;8.17;;
16800;SDS011;8518;53.236;10.384;2022-11-18T15:46:14;13.50;;;8.57;;
16800;SDS011;8518;53.236;10.384;2022-11-18T15:48:41;10.03;;;8.43;;
16800;SDS011;8518;53.236;10.384;2022-11-18T15:51:07;8.83;;;7.90;;
16800;SDS011;8518;53.236;10.384;2022-11-18T15:53:33;10.67;;;8.53;;
16800;SDS011;8518;53.236;10.384;2022-11-18T15:56:41;10.93;;;8.93;;
16800;SDS011;8518;53.236;10.384;2022-11-18T15:58:57;12.37;;;9.63;;
16800;SDS011;8518;53.236;10.384;2022-11-18T16:01:26;10.87;;;8.87;;
16800;SDS011;8518;53.236;10.384;2022-11-18T16:03:53;13.70;;;9.43;;
16800;SDS011;8518;53.236;10.384;2022-11-18T16:06:19;11.40;;;9.50;;
16800;SDS011;8518;53.236;10.384;2022-11-18T16:08:48;11.83;;;10.27;;
16800;SDS011;8518;53.236;10.384;2022-11-18T16:11:14;12.50;;;10.13;;
16800;SDS011;8518;53.236;10.384;2022-11-18T16:14:03;14.47;;;10.73;;
16800;SDS011;8518;53.236;10.384;2022-11-18T16:16:31;11.40;;;9.20;;
16800;SDS011;8518;53.236;10.384;2022-11-18T16:18:58;14.67;;;10.80;;
16800;SDS011;8518;53.236;10.384;2022-11-18T16:21:25;14.80;;;11.03;;
16800;SDS011;8518;53.236;10.384;2022-11-18T16:23:55;14.83;;;11.63;;
16800;SDS011;8518;53.236;10.384;2022-11-18T16:26:22;16.03;;;13.10;;
16800;SDS011;8518;53.236;10.384;2022-11-18T16:28:49;16.70;;;13.40;;
16800;SDS011;8518;53.236;10.384;2022-11-18T16:31:15;17.33;;;15.47;;
16800;SDS011;8518;53.236;10.384;2022-11-18T16:34:03;22.03;;;16.53;;
16800;SDS011;8518;53.236;10.384;2022-11-18T16:36:30;18.47;;;14.27;;
16800;SDS011;8518;53.236;10.384;2022-11-18T16:38:56;19.60;;;15.17;;
16800;SDS011;8518;53.236;10.384;2022-11-18T16:41:22;17.63;;;13.50;;
16800;SDS011;8518;53.236;10.384;2022-11-18T16:43:57;17.97;;;13.50;;
16800;SDS011;8518;53.236;10.384;2022-11-18T16:46:39;17.23;;;12.23;;